Time;durP1;ratioP1;P1;durP2;ratioP2;P2;SDS_P1;SDS_P2;PMS_P1;PMS_P2;Temp;Humidity;BMP_temperature;BMP_pressure;BME280_temperature;BME280_humidity;BME280_pressure;Samples;Min_cycle;Max_cycle;Signal;HPM_P1;HPM_P2
2023/01/27 00:01:04;;;;;;;38.50;28.30;;;;;;;-2.60;77.39;101025.67;109341;1256;57249;-77
2023/01/27 00:03:33;;;;;;;38.40;27.90;;;;;;;-2.60;77.35;101022.22;109195;1257;57397;-77
2023/01/27 00:10:36;;;;;;;35.80;25.10;;;;;;;-2.61;77.29;101022.05;109298;1257;59393;-77
2023/01/27 00:15:52;;;;;;;35.30;25.50;;;;;;;-2.63;77.28;101017.77;109252;1256;57316;-76
2023/01/27 00:18:20;;;;;;;37.60;27.90;;;;;;;-2.64;77.29;101018.82;109323;1257;57368;-77
2023/01/27 00:26:21;;;;;;;26.70;18.70;;;;;;;-2.66;77.32;101008.52;109265;1255;65051;-77
2023/01/27 00:28:49;;;;;;;26.20;18.10;;;;;;;-2.65;77.40;101004.02;109157;1256;58119;-77
2023/01/27 00:34:09;;;;;;;25.90;19.50;;;;;;;-2.62;77.47;101000.69;109178;1256;66073;-77
2023/01/27 00:36:40;;;;;;;31.30;22.10;;;;;;;-2.62;77.49;101000.52;109166;1255;59531;-77
2023/01/27 00:39:09;;;;;;;28.40;21.30;;;;;;;-2.58;77.59;100999.61;109283;1257;65267;-77
2023/01/27 00:41:38;;;;;;;26.10;19.00;;;;;;;-2.58;77.53;100996.00;109243;1256;58178;-77
2023/01/27 00:44:11;;;;;;;26.20;19.20;;;;;;;-2.57;77.51;100995.11;109305;1256;58465;-77
2023/01/27 00:46:43;;;;;;;;;;;;;;;-2.57;77.45;100995.46;109210;1257;66235;-77
2023/01/27 00:49:12;;;;;;;22.00;16.60;;;;;;;-2.59;77.40;100991.86;109290;1257;59449;-76
2023/01/27 00:51:41;;;;;;;26.30;18.70;;;;;;;-2.61;77.47;100986.89;109187;1256;63735;-76
2023/01/27 00:54:10;;;;;;;24.50;18.50;;;;;;;-2.60;77.44;100981.70;109264;1256;58084;-76
2023/01/27 00:56:38;;;;;;;25.30;18.90;;;;;;;-2.59;77.46;100986.00;109197;1257;58106;-76
2023/01/27 00:59:12;;;;;;;23.70;17.80;;;;;;;-2.59;77.46;100987.05;109295;1256;65379;-76
2023/01/27 01:01:43;;;;;;;23.20;18.00;;;;;;;-2.60;77.49;100985.52;109305;1256;58728;-78
2023/01/27 01:04:12;;;;;;;22.70;16.70;;;;;;;-2.59;77.53;100983.25;109144;1257;62790;-75
2023/01/27 01:06:41;;;;;;;24.00;16.90;;;;;;;-2.56;77.55;100984.75;109188;1256;58570;-76
2023/01/27 01:09:10;;;;;;;24.20;17.10;;;;;;;-2.55;77.56;100988.36;109197;1256;58190;-76
2023/01/27 01:11:39;;;;;;;22.70;16.80;;;;;;;-2.55;77.66;100986.98;109151;1256;65937;-76
2023/01/27 01:14:09;;;;;;;24.00;18.00;;;;;;;-2.57;77.49;100987.52;109159;1256;58263;-75
2023/01/27 01:16:37;;;;;;;24.30;17.10;;;;;;;-2.59;77.56;100981.70;109232;1255;63764;-77
2023/01/27 01:19:06;;;;;;;24.30;17.80;;;;;;;-2.58;77.66;100976.67;109196;1256;58154;-77
2023/01/27 01:21:36;;;;;;;23.30;17.40;;;;;;;-2.55;77.71;100971.98;109234;1256;58032;-77
2023/01/27 01:28:49;;;;;;;20.80;15.90;;;;;;;-2.54;77.66;100956.09;109238;1256;58167;-77
2023/01/27 01:31:18;;;;;;;20.70;14.50;;;;;;;-2.55;77.72;100953.88;109205;1256;64918;-76
2023/01/27 01:33:46;;;;;;;20.40;15.80;;;;;;;-2.55;77.73;100951.62;109192;1255;58117;-77
2023/01/27 01:36:18;;;;;;;22.20;17.40;;;;;;;-2.55;77.70;100949.21;109205;1256;58194;-77
2023/01/27 01:38:46;;;;;;;21.00;15.20;;;;;;;-2.55;77.70;100945.41;109198;1255;64847;-77
2023/01/27 01:41:19;;;;;;;22.70;17.70;;;;;;;-2.55;77.75;100942.30;109248;1255;59097;-77
2023/01/27 01:43:48;;;;;;;22.00;17.10;;;;;;;-2.55;77.76;100938.35;109076;1256;64704;-76
2023/01/27 01:46:17;;;;;;;22.50;17.10;;;;;;;-2.56;77.74;100933.02;109177;1257;58230;-77
2023/01/27 01:48:59;;;;;;;19.70;16.00;;;;;;;-2.58;77.74;100929.98;109199;1255;58111;-77
2023/01/27 01:51:38;;;;;;;23.50;17.50;;;;;;;-2.60;77.69;100928.63;109091;1256;66004;-76
2023/01/27 01:54:15;;;;;;;21.10;16.50;;;;;;;-2.62;77.73;100924.14;109210;1255;59440;-77
2023/01/27 01:56:51;;;;;;;20.10;15.50;;;;;;;-2.66;77.75;100918.36;109234;1256;63684;-77
2023/01/27 01:59:27;;;;;;;23.50;17.40;;;;;;;-2.70;77.75;100911.87;109121;1256;58115;-76
2023/01/27 02:01:56;;;;;;;20.20;14.70;;;;;;;-2.74;77.78;100908.48;109080;1258;58227;-77
2023/01/27 02:04:27;;;;;;;20.20;15.90;;;;;;;-2.76;77.84;100910.26;109193;1256;65398;-77
2023/01/27 02:07:43;;;;;;;22.30;16.70;;;;;;;-2.80;77.81;100911.52;109116;1257;59154;-76
2023/01/27 02:10:12;;;;;;;22.30;17.20;;;;;;;-2.82;77.86;100918.27;108818;1256;64778;-77
2023/01/27 02:12:41;;;;;;;22.40;16.30;;;;;;;-2.79;78.01;100925.48;109133;1257;58130;-77
2023/01/27 02:15:10;;;;;;;19.50;15.20;;;;;;;-2.76;78.05;100927.66;109138;1256;58144;-76
2023/01/27 02:17:39;;;;;;;21.80;16.60;;;;;;;-2.77;77.99;100921.98;109196;1256;65980;-75
2023/01/27 02:20:14;;;;;;;22.70;16.70;;;;;;;-2.79;77.93;100919.27;109133;1257;58235;-77
2023/01/27 02:22:47;;;;;;;25.00;17.70;;;;;;;-2.81;77.97;100917.20;109135;1256;63913;-77
2023/01/27 02:25:35;;;;;;;23.20;16.60;;;;;;;-2.81;78.05;100906.70;109200;1256;58132;-77
2023/01/27 02:28:06;;;;;;;24.00;17.30;;;;;;;-2.78;78.13;100902.87;109039;1256;58219;-77
2023/01/27 02:30:35;;;;;;;23.50;17.60;;;;;;;-2.75;78.21;100902.83;109203;1257;65984;-77
2023/01/27 02:33:13;;;;;;;23.60;17.40;;;;;;;-2.73;78.22;100897.61;109206;1256;58242;-76
2023/01/27 02:35:53;;;;;;;25.10;19.30;;;;;;;-2.70;78.25;100892.91;109133;1256;65009;-76
2023/01/27 02:38:21;;;;;;;29.20;17.90;;;;;;;-2.69;78.23;100892.73;109101;1257;58077;-77
2023/01/27 02:40:50;;;;;;;25.50;18.20;;;;;;;-2.67;78.28;100893.91;109200;1256;58039;-77
2023/01/27 02:43:19;;;;;;;26.30;18.30;;;;;;;-2.67;78.28;100893.90;109131;1256;65237;-77
2023/01/27 02:45:47;;;;;;;24.90;18.50;;;;;;;-2.68;78.29;100892.20;109207;1256;59565;-77
2023/01/27 02:48:16;;;;;;;23.10;17.00;;;;;;;-2.69;78.31;100895.66;109144;1256;63919;-76
2023/01/27 02:50:46;;;;;;;22.00;17.40;;;;;;;-2.71;78.20;100896.38;109178;1256;58142;-77
2023/01/27 02:53:15;;;;;;;21.60;16.70;;;;;;;-2.73;78.17;100897.09;109149;1256;58141;-77
2023/01/27 02:55:44;;;;;;;21.90;17.20;;;;;;;-2.74;78.15;100895.05;109115;1256;73913;-77
2023/01/27 02:58:15;;;;;;;24.60;17.90;;;;;;;-2.77;78.03;100890.81;109147;1256;59454;-77
2023/01/27 03:00:49;;;;;;;23.70;18.60;;;;;;;-2.80;78.12;100888.95;109172;1256;64722;-77
2023/01/27 03:03:19;;;;;;;26.80;18.90;;;;;;;-2.80;78.17;100888.42;109108;1257;58132;-77
2023/01/27 03:05:50;;;;;;;23.40;16.90;;;;;;;-2.77;78.20;100889.77;109146;1257;58111;-76
2023/01/27 03:08:20;;;;;;;28.70;18.40;;;;;;;-2.77;78.20;100886.33;108970;1256;65080;-77
2023/01/27 03:10:51;;;;;;;25.80;17.90;;;;;;;-2.77;78.22;100887.54;109121;1257;58286;-78
2023/01/27 03:13:24;;;;;;;27.30;20.20;;;;;;;-2.77;78.27;100888.91;108984;1260;64015;-77
2023/01/27 03:18:48;;;;;;;27.80;20.70;;;;;;;-2.77;78.28;100895.63;109028;1257;58081;-77
2023/01/27 03:21:20;;;;;;;27.70;20.50;;;;;;;-2.78;78.29;100894.79;109110;1257;64881;-75
2023/01/27 03:23:52;;;;;;;30.20;21.20;;;;;;;-2.78;78.30;100888.92;108875;1257;59310;-75
2023/01/27 03:26:24;;;;;;;23.60;16.40;;;;;;;-2.77;78.35;100881.67;109105;1258;65065;-76
2023/01/27 03:31:47;;;;;;;22.10;16.70;;;;;;;-2.78;78.36;100880.99;109099;1257;58217;-77
2023/01/27 03:34:17;;;;;;;21.90;16.00;;;;;;;-2.80;78.43;100886.69;109073;1257;65158;-76
2023/01/27 03:48:20;;;;;;;25.30;17.30;;;;;;;-2.68;78.57;100879.61;109130;1257;65907;-77
2023/01/27 03:50:52;;;;;;;24.10;18.70;;;;;;;-2.65;78.52;100882.13;109119;1257;66931;-76
2023/01/27 03:53:22;;;;;;;28.00;19.80;;;;;;;-2.62;78.56;100882.60;109010;1257;63667;-76
2023/01/27 03:55:52;;;;;;;27.10;19.40;;;;;;;-2.59;78.65;100885.84;109088;1257;58171;-76
2023/01/27 03:58:25;;;;;;;28.20;19.60;;;;;;;-2.56;78.56;100885.27;109116;1257;58188;-76
2023/01/27 04:09:29;;;;;;;24.10;16.80;;;;;;;-2.53;78.58;100889.35;102606;1295;599510;-75
2023/01/27 04:12:03;;;;;;;24.40;17.30;;;;;;;-2.58;78.48;100889.61;104816;1271;59329;-77
2023/01/27 04:14:36;;;;;;;24.40;18.20;;;;;;;-2.60;78.43;100889.30;105025;1279;59121;-77
2023/01/27 04:17:09;;;;;;;26.40;19.10;;;;;;;-2.63;78.43;100893.98;105678;1254;65246;-77
2023/01/27 04:19:37;;;;;;;27.90;19.40;;;;;;;-2.65;78.45;100893.33;105763;1255;59157;-78
2023/01/27 04:22:06;;;;;;;28.40;19.30;;;;;;;-2.64;78.52;100897.80;105699;1257;156405;-78
2023/01/27 04:24:37;;;;;;;25.90;18.40;;;;;;;-2.62;78.59;100901.23;105997;1251;59323;-77
2023/01/27 04:27:07;;;;;;;25.70;19.30;;;;;;;-2.62;78.65;100901.56;105839;1251;59649;-76
2023/01/27 04:29:39;;;;;;;28.20;20.00;;;;;;;-2.61;78.58;100903.61;105922;1257;65163;-77
2023/01/27 04:32:11;;;;;;;27.40;19.10;;;;;;;-2.60;78.64;100899.30;106030;1251;59999;-78
2023/01/27 04:34:39;;;;;;;25.90;19.30;;;;;;;-2.59;78.61;100896.54;105970;1251;64368;-77
2023/01/27 04:37:08;;;;;;;27.30;19.40;;;;;;;-2.59;78.55;100895.33;106103;1255;60088;-78
2023/01/27 04:39:40;;;;;;;30.70;20.40;;;;;;;-2.60;78.62;100900.34;105977;1254;59624;-77
2023/01/27 04:42:09;;;;;;;27.90;18.90;;;;;;;-2.62;78.66;100902.42;105930;1255;65944;-77
2023/01/27 04:44:37;;;;;;;28.60;20.00;;;;;;;-2.63;78.66;100903.13;106179;1251;60523;-77
2023/01/27 04:47:05;;;;;;;26.10;18.10;;;;;;;-2.63;78.61;100900.55;105968;1255;65068;-79
2023/01/27 04:49:34;;;;;;;25.80;17.70;;;;;;;-2.64;78.70;100892.80;106005;1254;59563;-75
2023/01/27 04:52:03;;;;;;;22.40;16.40;;;;;;;-2.64;78.67;100886.77;105929;1254;59677;-77
2023/01/27 04:54:31;;;;;;;25.60;18.10;;;;;;;-2.66;78.58;100880.09;106376;1251;64607;-79
2023/01/27 04:57:04;;;;;;;26.50;17.70;;;;;;;-2.70;78.58;100877.05;105986;1251;59953;-77
2023/01/27 04:59:32;;;;;;;23.60;17.80;;;;;;;-2.73;78.51;100873.84;105900;1251;65598;-77
2023/01/27 05:02:03;;;;;;;21.90;16.10;;;;;;;-2.75;78.56;100875.41;106061;1254;59689;-78
2023/01/27 05:04:34;;;;;;;;;;;;;;;-2.77;78.59;100873.38;105971;1254;59634;-77
2023/01/27 05:07:03;;;;;;;24.80;17.50;;;;;;;-2.79;78.52;100873.94;106221;1254;64805;-76
2023/01/27 05:09:31;;;;;;;29.10;18.20;;;;;;;-2.81;78.68;100874.14;105822;1254;59766;-77
2023/01/27 05:11:59;;;;;;;25.10;17.70;;;;;;;-2.82;78.63;100876.92;105879;1255;65669;-76
2023/01/27 05:14:27;;;;;;;21.80;16.40;;;;;;;-2.83;78.68;100879.16;105754;1254;59720;-76
2023/01/27 05:16:55;;;;;;;23.00;16.70;;;;;;;-2.83;78.68;100882.79;106234;1256;59635;-72
2023/01/27 05:19:24;;;;;;;25.80;16.70;;;;;;;-2.86;78.58;100884.57;105944;1254;66011;-77
2023/01/27 05:21:52;;;;;;;25.60;17.10;;;;;;;-2.87;78.62;100885.80;106251;1255;59592;-80
2023/01/27 05:24:21;;;;;;;21.40;14.30;;;;;;;-2.88;78.71;100888.90;106110;1257;67182;-77
2023/01/27 05:26:52;;;;;;;24.70;16.40;;;;;;;-2.90;78.61;100892.19;105928;1257;59611;-78
2023/01/27 05:29:20;;;;;;;22.30;15.60;;;;;;;-2.93;78.61;100891.21;105825;1253;59755;-75
2023/01/27 05:31:48;;;;;;;23.30;16.90;;;;;;;-2.93;78.72;100886.55;105799;1257;66012;-78
2023/01/27 05:34:17;;;;;;;24.90;16.70;;;;;;;-2.91;78.78;100883.25;105959;1251;60299;-77
2023/01/27 05:36:45;;;;;;;23.80;16.30;;;;;;;-2.90;78.83;100883.06;105724;1259;65404;-78
2023/01/27 05:39:14;;;;;;;21.60;15.60;;;;;;;-2.88;78.86;100884.59;106149;1254;59544;-79
2023/01/27 05:41:43;;;;;;;25.60;17.50;;;;;;;-2.86;78.85;100884.91;106769;1253;60292;-75
2023/01/27 05:44:11;;;;;;;24.80;17.50;;;;;;;-2.85;78.87;100885.23;105630;1259;65778;-78
2023/01/27 05:46:40;;;;;;;23.30;17.70;;;;;;;-2.83;78.87;100893.29;105825;1256;59882;-77
2023/01/27 05:49:08;;;;;;;23.50;17.00;;;;;;;-2.80;78.92;100897.39;105873;1254;65607;-76
2023/01/27 05:51:38;;;;;;;24.00;16.60;;;;;;;-2.80;78.81;100897.90;105951;1251;59565;-78
2023/01/27 05:54:07;;;;;;;22.70;16.10;;;;;;;-2.80;78.89;100900.48;105697;1252;61220;-77
2023/01/27 05:56:35;;;;;;;22.90;16.70;;;;;;;-2.81;78.87;100894.98;105789;1255;64797;-76
2023/01/27 05:59:04;;;;;;;23.70;15.80;;;;;;;-2.79;78.95;100895.83;105655;1254;59840;-77
2023/01/27 06:01:33;;;;;;;23.60;17.10;;;;;;;-2.78;78.85;100895.81;105942;1253;65586;-77
2023/01/27 06:04:02;;;;;;;27.60;17.30;;;;;;;-2.76;78.96;100895.27;106047;1257;59615;-76
2023/01/27 06:06:33;;;;;;;21.20;15.70;;;;;;;-2.73;78.93;100898.13;105932;1254;60059;-78
2023/01/27 06:09:01;;;;;;;21.10;15.80;;;;;;;-2.71;78.91;100898.27;105962;1254;66136;-76
2023/01/27 06:11:29;;;;;;;21.70;16.20;;;;;;;-2.71;78.86;100896.38;106691;1251;59914;-77
2023/01/27 08:13:16;;;;;;;27.20;19.30;;;;;;;-2.76;82.03;100838.81;103515;1284;604413;-77
2023/01/27 08:15:45;;;;;;;28.90;18.50;;;;;;;-2.27;80.32;100834.90;105024;1274;119242;-77
2023/01/27 08:18:13;;;;;;;28.00;17.50;;;;;;;-2.29;80.11;100832.01;105575;1257;59107;-78
2023/01/27 08:20:42;;;;;;;26.30;17.90;;;;;;;-2.31;79.93;100833.24;105594;1260;64113;-77
2023/01/27 08:23:13;;;;;;;29.80;19.10;;;;;;;-2.32;79.73;100832.40;105804;1256;59999;-78
2023/01/27 08:25:41;;;;;;;29.20;19.40;;;;;;;-2.32;79.62;100831.36;105926;1259;65426;-78
2023/01/27 08:28:09;;;;;;;32.00;21.60;;;;;;;-2.32;79.45;100832.22;105421;1261;59313;-77
2023/01/27 08:30:38;;;;;;;32.80;21.00;;;;;;;-2.31;79.38;100832.73;105781;1258;59673;-78
2023/01/27 08:33:06;;;;;;;33.70;21.10;;;;;;;-2.31;79.31;100830.15;105752;1259;64135;-77
2023/01/27 08:35:35;;;;;;;31.60;20.60;;;;;;;-2.32;79.10;100829.30;105352;1262;59321;-78
2023/01/27 08:38:04;;;;;;;33.60;21.90;;;;;;;-2.32;78.96;100835.16;105481;1259;64755;-78
2023/01/27 08:40:32;;;;;;;34.00;22.70;;;;;;;-2.31;78.84;100837.75;105969;1259;59650;-77
2023/01/27 08:43:00;;;;;;;35.50;22.20;;;;;;;-2.32;78.77;100839.64;105677;1255;59647;-78
2023/01/27 08:45:32;;;;;;;33.20;21.80;;;;;;;-2.33;78.73;100831.36;105737;1257;64740;-77
2023/01/27 08:48:00;;;;;;;31.90;19.70;;;;;;;-2.32;78.60;100831.88;105469;1259;59897;-79
2023/01/27 08:50:29;;;;;;;27.10;18.00;;;;;;;-2.30;78.42;100830.13;105761;1258;65373;-78
2023/01/27 08:53:00;;;;;;;26.50;18.20;;;;;;;-2.29;78.39;100832.18;105554;1260;59648;-79
2023/01/27 08:55:31;;;;;;;27.30;18.40;;;;;;;-2.29;78.29;100835.29;105583;1259;59564;-78
2023/01/27 08:57:59;;;;;;;27.30;18.30;;;;;;;-2.30;78.18;100834.61;105561;1260;65723;-78
2023/01/27 09:00:28;;;;;;;26.70;17.70;;;;;;;-2.27;78.11;100832.30;105562;1260;60068;-78
2023/01/27 09:02:56;;;;;;;24.30;16.80;;;;;;;-2.25;78.02;100828.11;105926;1255;65284;-78
2023/01/27 09:05:25;;;;;;;24.50;16.70;;;;;;;-2.28;77.77;100828.53;105532;1265;59590;-79
2023/01/27 09:07:53;;;;;;;25.00;16.10;;;;;;;-2.32;77.72;100834.29;105461;1262;59679;-77
2023/01/27 09:10:21;;;;;;;23.90;16.60;;;;;;;-2.33;77.55;100836.02;105533;1261;66223;-77
2023/01/27 09:12:50;;;;;;;26.80;17.00;;;;;;;-2.32;77.46;100833.42;105764;1260;59894;-76
2023/01/27 09:15:18;;;;;;;27.90;16.80;;;;;;;-2.27;77.39;100834.72;105764;1262;65542;-77
2023/01/27 09:17:47;;;;;;;24.80;16.30;;;;;;;-2.22;77.37;100829.79;105396;1257;59617;-77
2023/01/27 09:20:15;;;;;;;28.10;17.10;;;;;;;-2.18;77.26;100828.35;105386;1262;59618;-77
2023/01/27 09:22:44;;;;;;;23.60;16.30;;;;;;;-2.16;77.14;100825.52;105832;1262;65538;-77
2023/01/27 09:25:16;;;;;;;22.50;15.70;;;;;;;-2.16;77.03;100817.59;105866;1261;59743;-78
2023/01/27 09:27:44;;;;;;;22.60;15.90;;;;;;;-2.17;76.95;100812.25;105655;1260;65242;-78
2023/01/27 09:30:13;;;;;;;21.80;14.80;;;;;;;-2.15;76.93;100805.84;105479;1263;59731;-79
2023/01/27 09:32:42;;;;;;;21.70;14.90;;;;;;;-2.12;76.80;100804.75;105522;1258;59717;-76
2023/01/27 09:35:10;;;;;;;21.80;14.30;;;;;;;-2.11;76.57;100800.23;105987;1260;65612;-75
2023/01/27 09:37:46;;;;;;;22.60;14.90;;;;;;;-2.06;76.52;100804.96;105854;1260;59805;-75
2023/01/27 09:40:42;;;;;;;21.60;14.30;;;;;;;-2.00;76.47;100807.61;105016;1262;63739;-76
2023/01/27 09:43:42;;;;;;;22.30;15.10;;;;;;;-1.92;76.32;100812.45;105167;1262;59569;-75
2023/01/27 09:46:13;;;;;;;21.00;14.40;;;;;;;-1.88;76.15;100811.48;105694;1263;59742;-76
2023/01/27 09:48:44;;;;;;;25.10;15.60;;;;;;;-1.84;76.04;100809.49;105869;1258;65257;-76
2023/01/27 09:51:27;;;;;;;23.10;14.90;;;;;;;-1.81;75.78;100800.98;105991;1261;59895;-77
2023/01/27 09:54:05;;;;;;;23.70;16.60;;;;;;;-1.82;75.64;100789.61;106154;1259;64614;-76
2023/01/27 09:56:52;;;;;;;23.00;15.80;;;;;;;-1.83;75.49;100788.61;105835;1263;59757;-76
2023/01/27 09:59:32;;;;;;;25.80;16.90;;;;;;;-1.85;75.36;100780.33;105829;1259;59570;-75
2023/01/27 10:02:06;;;;;;;25.80;17.30;;;;;;;-1.85;75.30;100774.83;105703;1262;66303;-76
2023/01/27 10:04:45;;;;;;;27.00;17.40;;;;;;;-1.84;75.31;100782.91;105657;1260;59822;-77
2023/01/27 10:07:23;;;;;;;23.20;15.90;;;;;;;-1.82;75.31;100788.91;106017;1258;65468;-76
2023/01/27 10:10:16;;;;;;;24.10;16.00;;;;;;;-1.78;75.31;100782.27;105755;1260;59531;-77
2023/01/27 10:12:51;;;;;;;24.80;15.20;;;;;;;-1.79;75.05;100779.19;105764;1264;59647;-76
2023/01/27 10:15:49;;;;;;;22.30;15.50;;;;;;;-1.83;74.92;100780.48;105842;1260;65990;-76
2023/01/27 10:18:23;;;;;;;21.70;14.40;;;;;;;-1.84;74.87;100779.80;105781;1262;59692;-77
2023/01/27 10:21:12;;;;;;;21.40;14.60;;;;;;;-1.83;74.72;100775.48;105885;1262;64189;-76
2023/01/27 10:24:01;;;;;;;21.50;14.80;;;;;;;-1.85;74.54;100776.89;105846;1258;59605;-76
2023/01/27 10:26:48;;;;;;;20.80;14.60;;;;;;;-1.86;74.40;100778.98;105918;1260;59629;-79
2023/01/27 10:29:25;;;;;;;24.80;14.60;;;;;;;-1.88;74.27;100773.86;105683;1258;65914;-78
2023/01/27 10:32:21;;;;;;;23.00;14.40;;;;;;;-1.94;74.09;100771.23;105792;1260;60235;-78
2023/01/27 10:35:19;;;;;;;19.80;13.60;;;;;;;-1.98;73.94;100773.39;106049;1260;64655;-77
2023/01/27 10:38:03;;;;;;;21.80;13.70;;;;;;;-1.99;73.83;100776.55;105778;1261;60028;-79
2023/01/27 10:40:34;;;;;;;18.20;12.80;;;;;;;-1.98;73.78;100773.73;105462;1262;59528;-78
2023/01/27 10:43:24;;;;;;;18.80;13.70;;;;;;;-1.95;73.74;100764.86;105637;1260;64914;-78
2023/01/27 10:45:57;;;;;;;22.60;15.40;;;;;;;-1.92;73.60;100756.19;105729;1261;59740;-80
2023/01/27 10:48:34;;;;;;;24.50;16.10;;;;;;;-1.92;73.52;100754.98;106157;1260;65925;-77
2023/01/27 10:51:21;;;;;;;24.80;16.30;;;;;;;-1.90;73.51;100756.65;105380;1261;59671;-78
2023/01/27 10:54:14;;;;;;;23.20;16.40;;;;;;;-1.87;73.50;100756.56;105297;1261;59679;-77
2023/01/27 10:56:46;;;;;;;24.30;16.30;;;;;;;-1.83;73.52;100750.98;105475;1260;66209;-78
2023/01/27 10:59:36;;;;;;;24.70;16.50;;;;;;;-1.83;73.46;100746.14;105814;1260;59942;-78
2023/01/27 11:02:08;;;;;;;24.70;16.00;;;;;;;-1.84;73.45;100749.42;106024;1262;65396;-78
2023/01/27 11:04:40;;;;;;;23.20;15.20;;;;;;;-1.82;73.38;100746.63;105851;1263;59723;-77
2023/01/27 11:07:18;;;;;;;22.40;16.00;;;;;;;-1.80;73.30;100746.05;105592;1263;59825;-79
2023/01/27 11:09:58;;;;;;;24.10;16.50;;;;;;;-1.77;73.31;100737.53;106027;1263;66115;-75
2023/01/27 11:12:31;;;;;;;21.10;14.70;;;;;;;-1.75;73.20;100735.40;105645;1262;59659;-82
2023/01/27 11:15:01;;;;;;;22.20;16.00;;;;;;;-1.74;73.14;100731.77;105864;1259;65448;-81
2023/01/27 11:17:41;;;;;;;22.30;14.90;;;;;;;-1.72;73.01;100736.05;105666;1257;59707;-77
2023/01/27 11:20:35;;;;;;;22.10;14.20;;;;;;;-1.68;72.97;100729.74;105869;1270;59775;-75
2023/01/27 11:23:25;;;;;;;22.90;15.20;;;;;;;-1.65;72.89;100724.46;105661;1264;65601;-76
2023/01/27 11:25:55;;;;;;;23.70;15.10;;;;;;;-1.62;72.81;100719.42;106178;1259;59650;-76
2023/01/27 11:28:48;;;;;;;24.50;16.20;;;;;;;-1.61;72.70;100719.73;105852;1258;65635;-77
2023/01/27 11:31:34;;;;;;;24.00;16.20;;;;;;;-1.59;72.47;100718.30;105716;1261;59625;-78
2023/01/27 11:34:09;;;;;;;22.00;14.80;;;;;;;-1.58;72.46;100707.20;106221;1258;59250;-77
2023/01/27 11:36:37;;;;;;;27.30;17.00;;;;;;;-1.58;72.35;100704.95;105714;1257;64092;-79
2023/01/27 11:39:07;;;;;;;26.30;16.70;;;;;;;-1.59;72.26;100707.42;105482;1260;59538;-76
2023/01/27 11:41:40;;;;;;;28.30;17.20;;;;;;;-1.59;72.24;100713.12;106103;1257;65220;-77
2023/01/27 11:44:23;;;;;;;27.20;17.00;;;;;;;-1.60;72.16;100709.34;105650;1262;59591;-78
2023/01/27 11:46:52;;;;;;;28.40;18.10;;;;;;;-1.60;72.17;100702.61;105589;1264;59695;-78
2023/01/27 11:49:30;;;;;;;26.70;17.20;;;;;;;-1.61;72.18;100700.73;105839;1263;66228;-80
2023/01/27 11:52:12;;;;;;;28.90;18.00;;;;;;;-1.60;72.25;100696.56;105988;1256;59618;-79
2023/01/27 11:54:55;;;;;;;26.80;17.60;;;;;;;-1.60;72.17;100697.08;105464;1261;64402;-79
2023/01/27 11:57:26;;;;;;;27.20;17.60;;;;;;;-1.62;72.14;100698.52;105776;1271;59681;-76
2023/01/27 12:00:00;;;;;;;29.90;18.80;;;;;;;-1.62;72.16;100700.09;105830;1257;59718;-75
2023/01/27 14:13:21;;;;;;;31.60;22.50;;;;;;;-1.84;76.55;100659.08;103775;1280;605925;-84
2023/01/27 14:15:53;;;;;;;34.00;23.10;;;;;;;-1.26;75.02;100653.90;104926;1269;94815;-77
2023/01/27 14:18:25;;;;;;;27.90;19.90;;;;;;;-1.26;74.95;100657.17;105085;1269;59323;-79
2023/01/27 14:21:39;;;;;;;28.90;20.70;;;;;;;-1.26;74.79;100656.48;105014;1272;64051;-79
2023/01/27 14:24:28;;;;;;;24.80;18.10;;;;;;;-1.26;74.64;100655.10;105251;1268;60049;-80
2023/01/27 14:26:59;;;;;;;;;;;;;;;-1.26;74.50;100658.73;105350;1262;64263;-79
2023/01/27 14:29:32;;;;;;;28.80;18.70;;;;;;;-1.27;74.40;100655.65;105480;1257;59304;-79
2023/01/27 14:32:30;;;;;;;27.00;18.20;;;;;;;-1.29;74.35;100655.72;105436;1257;59416;-80
2023/01/27 14:35:35;;;;;;;25.40;18.30;;;;;;;-1.30;74.28;100656.24;105880;1257;64864;-80
2023/01/27 14:38:20;;;;;;;27.00;18.40;;;;;;;-1.31;74.04;100655.41;105699;1257;59765;-80
2023/01/27 14:41:09;;;;;;;27.40;18.80;;;;;;;-1.32;74.08;100657.19;105780;1258;64583;-79
2023/01/27 14:43:54;;;;;;;29.10;18.80;;;;;;;-1.34;74.08;100658.77;105843;1257;59580;-78
2023/01/27 14:47:02;;;;;;;27.60;19.00;;;;;;;-1.34;74.07;100657.40;105573;1258;59819;-78
2023/01/27 14:50:03;;;;;;;25.60;19.00;;;;;;;-1.34;74.01;100654.30;105237;1263;65655;-80
2023/01/27 14:52:40;;;;;;;29.80;18.80;;;;;;;-1.35;74.06;100650.34;105793;1257;60085;-77
2023/01/27 14:55:32;;;;;;;28.70;19.00;;;;;;;-1.35;73.99;100653.63;106091;1257;65283;-79
2023/01/27 14:58:19;;;;;;;28.60;18.80;;;;;;;-1.34;74.01;100659.13;105695;1263;59608;-79
2023/01/27 15:01:05;;;;;;;29.40;20.20;;;;;;;-1.32;73.95;100659.95;105770;1258;59631;-81
2023/01/27 15:04:04;;;;;;;29.90;20.90;;;;;;;-1.30;73.98;100656.95;105832;1258;65989;-84
2023/01/27 15:06:39;;;;;;;28.90;20.00;;;;;;;-1.29;73.95;100656.04;105693;1260;60193;-77
2023/01/27 15:09:09;;;;;;;28.40;19.30;;;;;;;-1.27;74.01;100657.54;106073;1257;64273;-80
2023/01/27 15:11:49;;;;;;;28.50;19.30;;;;;;;-1.26;73.90;100655.44;105613;1261;59698;-82
2023/01/27 15:14:35;;;;;;;26.90;19.20;;;;;;;-1.23;74.02;100659.02;105682;1263;59634;-80
2023/01/27 15:17:33;;;;;;;28.40;18.60;;;;;;;-1.22;74.03;100656.91;105660;1262;65920;-82
2023/01/27 15:20:38;;;;;;;30.00;18.80;;;;;;;-1.20;74.05;100652.01;105583;1263;59816;-77
2023/01/27 15:23:17;;;;;;;28.60;18.70;;;;;;;-1.18;74.05;100653.51;106035;1258;65307;-77
2023/01/27 15:25:47;;;;;;;28.00;17.80;;;;;;;-1.16;74.20;100653.27;105828;1263;59611;-80
2023/01/27 15:28:15;;;;;;;25.70;17.70;;;;;;;-1.14;74.11;100649.63;105755;1262;59564;-77
2023/01/27 15:31:13;;;;;;;27.20;18.10;;;;;;;-1.12;74.12;100646.64;105746;1259;65812;-79
2023/01/27 15:33:44;;;;;;;25.90;17.40;;;;;;;-1.10;74.05;100645.88;105623;1258;59914;-84
2023/01/27 15:36:26;;;;;;;27.60;18.70;;;;;;;-1.08;74.07;100648.25;105750;1272;64355;-76
2023/01/27 15:39:08;;;;;;;28.40;19.40;;;;;;;-1.06;74.08;100644.73;105853;1259;59627;-75
2023/01/27 15:41:35;;;;;;;26.40;18.00;;;;;;;-1.05;74.15;100644.88;106195;1256;59660;-80
2023/01/27 15:44:24;;;;;;;29.80;18.80;;;;;;;-1.03;74.10;100646.73;106567;1260;65099;-78
2023/01/27 15:46:52;;;;;;;29.30;19.20;;;;;;;-1.03;74.13;100645.84;106046;1255;59589;-77
2023/01/27 15:49:27;;;;;;;26.40;18.00;;;;;;;-1.01;74.08;100647.18;105896;1257;65367;-79
2023/01/27 15:51:55;;;;;;;26.80;18.80;;;;;;;-1.00;74.07;100645.94;105925;1254;59617;-72
2023/01/27 15:54:30;;;;;;;28.40;18.80;;;;;;;-0.98;74.00;100646.39;105915;1256;59573;-72
2023/01/27 15:56:59;;;;;;;27.90;18.60;;;;;;;-0.97;74.07;100641.16;106084;1257;66058;-72
2023/01/27 15:59:29;;;;;;;29.30;18.40;;;;;;;-0.95;74.10;100636.11;106061;1254;60101;-76
2023/01/27 16:02:10;;;;;;;26.10;17.90;;;;;;;-0.93;73.94;100632.08;106074;1257;65530;-75
2023/01/27 16:04:38;;;;;;;29.20;19.50;;;;;;;-0.91;74.04;100630.48;105961;1259;59740;-77
2023/01/27 16:07:06;;;;;;;28.00;18.50;;;;;;;-0.90;74.02;100628.20;105757;1260;59670;-78
2023/01/27 16:09:39;;;;;;;29.00;19.80;;;;;;;-0.90;73.98;100626.64;105874;1254;64963;-73
2023/01/27 16:12:26;;;;;;;;;;;;;;;-0.89;74.08;100629.71;105892;1260;59503;-78
2023/01/27 16:15:33;;;;;;;28.60;18.80;;;;;;;-0.88;74.02;100633.67;105966;1257;65581;-72
2023/01/27 16:18:06;;;;;;;30.10;18.60;;;;;;;-0.87;74.01;100632.79;105681;1261;59871;-73
2023/01/27 16:20:52;;;;;;;26.90;18.50;;;;;;;-0.85;73.95;100628.95;105455;1260;59720;-73
2023/01/27 16:23:40;;;;;;;27.00;18.30;;;;;;;-0.84;74.07;100628.04;105623;1260;65925;-76
2023/01/27 16:26:19;;;;;;;27.70;18.60;;;;;;;-0.83;73.96;100624.05;105717;1263;59817;-74
2023/01/27 16:28:47;;;;;;;25.90;18.00;;;;;;;-0.82;73.93;100617.27;105981;1257;65446;-74
2023/01/27 16:31:19;;;;;;;24.10;16.90;;;;;;;-0.82;73.94;100613.45;106033;1259;59666;-75